sensor_id;sensor_type;location;lat;lon;timestamp;temperature;humidity
21425;DHT22;10873;51.132;16.848;2023-08-08T00:01:58;28.80;56.80
21425;DHT22;10873;51.132;16.848;2023-08-08T00:04:25;28.80;56.80
21425;DHT22;10873;51.132;16.848;2023-08-08T00:06:51;28.80;56.90
21425;DHT22;10873;51.132;16.848;2023-08-08T00:09:17;28.70;56.80
21425;DHT22;10873;51.132;16.848;2023-08-08T00:11:43;28.70;56.80
21425;DHT22;10873;51.132;16.848;2023-08-08T00:14:09;28.70;56.90
21425;DHT22;10873;51.132;16.848;2023-08-08T00:16:35;28.60;56.80
21425;DHT22;10873;51.132;16.848;2023-08-08T00:19:01;28.60;56.80
21425;DHT22;10873;51.132;16.848;2023-08-08T00:21:30;28.60;56.90
21425;DHT22;10873;51.132;16.848;2023-08-08T00:23:56;28.60;57.00
21425;DHT22;10873;51.132;16.848;2023-08-08T00:26:22;28.60;57.00
21425;DHT22;10873;51.132;16.848;2023-08-08T00:28:48;28.50;57.00
21425;DHT22;10873;51.132;16.848;2023-08-08T00:31:14;28.60;57.00
21425;DHT22;10873;51.132;16.848;2023-08-08T00:33:43;28.50;57.00
21425;DHT22;10873;51.132;16.848;2023-08-08T00:36:09;28.50;57.00
21425;DHT22;10873;51.132;16.848;2023-08-08T00:38:36;28.50;57.00
21425;DHT22;10873;51.132;16.848;2023-08-08T00:41:02;28.40;56.90
21425;DHT22;10873;51.132;16.848;2023-08-08T00:43:30;28.50;56.90
21425;DHT22;10873;51.132;16.848;2023-08-08T00:45:57;28.40;56.90
21425;DHT22;10873;51.132;16.848;2023-08-08T00:48:23;28.40;56.80
21425;DHT22;10873;51.132;16.848;2023-08-08T00:50:50;28.40;57.30
21425;DHT22;10873;51.132;16.848;2023-08-08T00:53:17;28.40;56.90
21425;DHT22;10873;51.132;16.848;2023-08-08T00:55:44;28.30;56.80
21425;DHT22;10873;51.132;16.848;2023-08-08T00:58:11;28.30;56.80
21425;DHT22;10873;51.132;16.848;2023-08-08T01:00:37;28.30;56.80
21425;DHT22;10873;51.132;16.848;2023-08-08T01:03:04;28.30;56.80
21425;DHT22;10873;51.132;16.848;2023-08-08T01:05:34;28.30;56.80
21425;DHT22;10873;51.132;16.848;2023-08-08T01:08:04;28.30;56.80
21425;DHT22;10873;51.132;16.848;2023-08-08T01:10:33;28.20;56.80
21425;DHT22;10873;51.132;16.848;2023-08-08T01:13:05;28.30;56.80
21425;DHT22;10873;51.132;16.848;2023-08-08T01:15:34;28.20;56.80
21425;DHT22;10873;51.132;16.848;2023-08-08T01:18:02;28.20;56.80
21425;DHT22;10873;51.132;16.848;2023-08-08T01:20:29;28.20;56.80
21425;DHT22;10873;51.132;16.848;2023-08-08T01:23:01;28.20;56.90
21425;DHT22;10873;51.132;16.848;2023-08-08T01:25:31;28.20;56.80
21425;DHT22;10873;51.132;16.848;2023-08-08T01:27:57;28.20;56.90
21425;DHT22;10873;51.132;16.848;2023-08-08T01:30:23;28.10;56.90
21425;DHT22;10873;51.132;16.848;2023-08-08T01:32:49;28.10;56.90
21425;DHT22;10873;51.132;16.848;2023-08-08T01:35:15;28.10;56.90
21425;DHT22;10873;51.132;16.848;2023-08-08T01:37:44;28.10;56.90
21425;DHT22;10873;51.132;16.848;2023-08-08T01:40:13;28.10;56.90
21425;DHT22;10873;51.132;16.848;2023-08-08T01:42:43;28.10;56.90
21425;DHT22;10873;51.132;16.848;2023-08-08T01:45:10;28.10;57.00
21425;DHT22;10873;51.132;16.848;2023-08-08T01:47:37;28.00;56.90
21425;DHT22;10873;51.132;16.848;2023-08-08T01:50:03;28.00;56.90
21425;DHT22;10873;51.132;16.848;2023-08-08T01:52:29;28.00;56.90
21425;DHT22;10873;51.132;16.848;2023-08-08T01:54:55;28.00;56.80
21425;DHT22;10873;51.132;16.848;2023-08-08T01:57:22;28.00;56.90
21425;DHT22;10873;51.132;16.848;2023-08-08T01:59:49;28.00;56.90
21425;DHT22;10873;51.132;16.848;2023-08-08T02:02:15;28.00;56.80
21425;DHT22;10873;51.132;16.848;2023-08-08T02:04:43;28.00;56.80
21425;DHT22;10873;51.132;16.848;2023-08-08T02:07:09;27.90;56.80
21425;DHT22;10873;51.132;16.848;2023-08-08T02:09:35;28.00;56.90
21425;DHT22;10873;51.132;16.848;2023-08-08T02:12:01;27.90;56.90
21425;DHT22;10873;51.132;16.848;2023-08-08T02:14:27;27.90;56.90
21425;DHT22;10873;51.132;16.848;2023-08-08T02:16:55;27.90;56.90
21425;DHT22;10873;51.132;16.848;2023-08-08T02:19:21;27.90;56.80
21425;DHT22;10873;51.132;16.848;2023-08-08T02:21:47;27.90;56.80
21425;DHT22;10873;51.132;16.848;2023-08-08T02:24:13;27.90;56.80
21425;DHT22;10873;51.132;16.848;2023-08-08T02:26:39;27.80;56.70
21425;DHT22;10873;51.132;16.848;2023-08-08T02:29:05;27.90;56.80
21425;DHT22;10873;51.132;16.848;2023-08-08T02:31:31;27.80;56.70
21425;DHT22;10873;51.132;16.848;2023-08-08T02:33:58;27.80;56.70
21425;DHT22;10873;51.132;16.848;2023-08-08T02:36:25;27.80;56.70
21425;DHT22;10873;51.132;16.848;2023-08-08T02:38:51;27.80;56.70
21425;DHT22;10873;51.132;16.848;2023-08-08T02:41:19;27.80;56.70
21425;DHT22;10873;51.132;16.848;2023-08-08T02:43:46;27.80;56.70
21425;DHT22;10873;51.132;16.848;2023-08-08T02:46:12;27.80;56.70
21425;DHT22;10873;51.132;16.848;2023-08-08T02:48:38;27.80;56.70
21425;DHT22;10873;51.132;16.848;2023-08-08T02:51:05;27.80;56.70
21425;DHT22;10873;51.132;16.848;2023-08-08T02:53:31;27.70;56.70
21425;DHT22;10873;51.132;16.848;2023-08-08T02:55:57;27.70;56.60
21425;DHT22;10873;51.132;16.848;2023-08-08T02:58:23;27.70;56.70
21425;DHT22;10873;51.132;16.848;2023-08-08T03:00:50;27.70;56.70
21425;DHT22;10873;51.132;16.848;2023-08-08T03:03:15;27.70;56.70
21425;DHT22;10873;51.132;16.848;2023-08-08T03:05:43;27.70;56.70
21425;DHT22;10873;51.132;16.848;2023-08-08T03:08:10;27.70;56.70
21425;DHT22;10873;51.132;16.848;2023-08-08T03:10:36;27.60;56.70
21425;DHT22;10873;51.132;16.848;2023-08-08T03:13:02;27.70;56.70
21425;DHT22;10873;51.132;16.848;2023-08-08T03:15:28;27.60;56.70
21425;DHT22;10873;51.132;16.848;2023-08-08T03:17:54;27.60;56.70
21425;DHT22;10873;51.132;16.848;2023-08-08T03:20:21;27.60;56.70
21425;DHT22;10873;51.132;16.848;2023-08-08T03:22:47;27.60;56.70
21425;DHT22;10873;51.132;16.848;2023-08-08T03:25:15;27.60;56.80
21425;DHT22;10873;51.132;16.848;2023-08-08T03:27:42;27.60;56.80
21425;DHT22;10873;51.132;16.848;2023-08-08T03:30:09;27.60;56.80
21425;DHT22;10873;51.132;16.848;2023-08-08T03:32:35;27.60;56.80
21425;DHT22;10873;51.132;16.848;2023-08-08T03:35:02;27.50;56.70
21425;DHT22;10873;51.132;16.848;2023-08-08T03:37:29;27.50;56.70
21425;DHT22;10873;51.132;16.848;2023-08-08T03:39:55;27.50;56.70
21425;DHT22;10873;51.132;16.848;2023-08-08T03:42:22;27.50;56.70
21425;DHT22;10873;51.132;16.848;2023-08-08T03:44:48;27.50;56.80
21425;DHT22;10873;51.132;16.848;2023-08-08T03:47:14;27.50;56.80
21425;DHT22;10873;51.132;16.848;2023-08-08T03:49:40;27.50;56.70
21425;DHT22;10873;51.132;16.848;2023-08-08T03:52:06;27.50;56.70
21425;DHT22;10873;51.132;16.848;2023-08-08T03:54:32;27.50;56.70
21425;DHT22;10873;51.132;16.848;2023-08-08T03:56:58;27.50;56.70
21425;DHT22;10873;51.132;16.848;2023-08-08T03:59:26;27.50;56.70
21425;DHT22;10873;51.132;16.848;2023-08-08T04:01:52;27.40;56.60
21425;DHT22;10873;51.132;16.848;2023-08-08T04:04:18;27.50;56.70
21425;DHT22;10873;51.132;16.848;2023-08-08T04:06:44;27.40;56.60
21425;DHT22;10873;51.132;16.848;2023-08-08T04:09:10;27.40;56.70
21425;DHT22;10873;51.132;16.848;2023-08-08T04:11:36;27.40;56.60
21425;DHT22;10873;51.132;16.848;2023-08-08T04:14:03;27.40;56.60
21425;DHT22;10873;51.132;16.848;2023-08-08T04:16:30;27.50;56.70
21425;DHT22;10873;51.132;16.848;2023-08-08T04:18:56;27.40;56.60
21425;DHT22;10873;51.132;16.848;2023-08-08T04:21:22;27.40;56.50
21425;DHT22;10873;51.132;16.848;2023-08-08T04:23:49;27.40;56.50
21425;DHT22;10873;51.132;16.848;2023-08-08T04:26:15;27.40;56.60
21425;DHT22;10873;51.132;16.848;2023-08-08T04:28:41;27.50;56.70
21425;DHT22;10873;51.132;16.848;2023-08-08T04:31:07;27.50;56.70
21425;DHT22;10873;51.132;16.848;2023-08-08T04:33:34;27.50;56.70
21425;DHT22;10873;51.132;16.848;2023-08-08T04:36:00;27.50;56.70
21425;DHT22;10873;51.132;16.848;2023-08-08T04:38:26;27.50;56.70
21425;DHT22;10873;51.132;16.848;2023-08-08T04:40:52;27.40;56.60
21425;DHT22;10873;51.132;16.848;2023-08-08T04:43:19;27.40;56.60
21425;DHT22;10873;51.132;16.848;2023-08-08T04:45:44;27.50;56.70
21425;DHT22;10873;51.132;16.848;2023-08-08T04:48:11;27.50;56.70
21425;DHT22;10873;51.132;16.848;2023-08-08T04:50:38;27.50;56.70
21425;DHT22;10873;51.132;16.848;2023-08-08T04:53:05;27.50;56.60
21425;DHT22;10873;51.132;16.848;2023-08-08T04:55:30;27.50;56.60
21425;DHT22;10873;51.132;16.848;2023-08-08T04:57:57;27.50;56.50
21425;DHT22;10873;51.132;16.848;2023-08-08T05:00:23;27.50;56.70
21425;DHT22;10873;51.132;16.848;2023-08-08T05:02:49;27.50;56.70
21425;DHT22;10873;51.132;16.848;2023-08-08T05:05:15;27.50;56.70
21425;DHT22;10873;51.132;16.848;2023-08-08T05:07:43;27.50;56.70
21425;DHT22;10873;51.132;16.848;2023-08-08T05:10:09;27.50;56.70
21425;DHT22;10873;51.132;16.848;2023-08-08T05:12:35;27.50;56.80
21425;DHT22;10873;51.132;16.848;2023-08-08T05:15:01;27.50;56.80
21425;DHT22;10873;51.132;16.848;2023-08-08T05:17:30;27.60;56.80
21425;DHT22;10873;51.132;16.848;2023-08-08T05:19:57;27.60;57.50
21425;DHT22;10873;51.132;16.848;2023-08-08T05:22:23;27.50;56.90
21425;DHT22;10873;51.132;16.848;2023-08-08T05:24:50;27.50;56.90
21425;DHT22;10873;51.132;16.848;2023-08-08T05:27:17;27.50;57.00
21425;DHT22;10873;51.132;16.848;2023-08-08T05:29:43;27.60;57.00
21425;DHT22;10873;51.132;16.848;2023-08-08T05:32:09;27.60;57.60
21425;DHT22;10873;51.132;16.848;2023-08-08T05:34:35;27.60;57.10
21425;DHT22;10873;51.132;16.848;2023-08-08T05:37:01;27.60;58.00
21425;DHT22;10873;51.132;16.848;2023-08-08T05:39:27;27.50;58.50
21425;DHT22;10873;51.132;16.848;2023-08-08T05:41:54;27.60;58.90
21425;DHT22;10873;51.132;16.848;2023-08-08T05:44:20;27.60;59.00
21425;DHT22;10873;51.132;16.848;2023-08-08T05:46:46;27.60;59.00
21425;DHT22;10873;51.132;16.848;2023-08-08T05:49:12;27.60;58.90
21425;DHT22;10873;51.132;16.848;2023-08-08T05:51:40;27.60;58.80
21425;DHT22;10873;51.132;16.848;2023-08-08T05:54:06;27.60;58.60
21425;DHT22;10873;51.132;16.848;2023-08-08T05:56:35;27.60;58.50
21425;DHT22;10873;51.132;16.848;2023-08-08T05:59:03;27.60;58.70
21425;DHT22;10873;51.132;16.848;2023-08-08T06:01:29;27.60;57.80
21425;DHT22;10873;51.132;16.848;2023-08-08T06:03:55;27.60;57.60
21425;DHT22;10873;51.132;16.848;2023-08-08T06:06:21;27.60;57.50
21425;DHT22;10873;51.132;16.848;2023-08-08T06:08:50;27.60;57.20
21425;DHT22;10873;51.132;16.848;2023-08-08T06:11:16;27.60;57.00
21425;DHT22;10873;51.132;16.848;2023-08-08T06:13:42;27.60;56.90
21425;DHT22;10873;51.132;16.848;2023-08-08T06:16:10;27.60;56.80
21425;DHT22;10873;51.132;16.848;2023-08-08T06:18:36;27.60;56.70
21425;DHT22;10873;51.132;16.848;2023-08-08T06:21:02;27.60;56.40
21425;DHT22;10873;51.132;16.848;2023-08-08T06:23:28;27.60;56.40
21425;DHT22;10873;51.132;16.848;2023-08-08T06:25:54;27.60;56.40
21425;DHT22;10873;51.132;16.848;2023-08-08T06:28:20;27.60;56.30
21425;DHT22;10873;51.132;16.848;2023-08-08T06:30:46;27.60;56.30
21425;DHT22;10873;51.132;16.848;2023-08-08T06:33:13;27.60;56.30
21425;DHT22;10873;51.132;16.848;2023-08-08T06:35:40;27.60;56.20
21425;DHT22;10873;51.132;16.848;2023-08-08T06:38:05;27.60;56.20
21425;DHT22;10873;51.132;16.848;2023-08-08T06:40:32;27.70;56.30
21425;DHT22;10873;51.132;16.848;2023-08-08T06:42:59;27.70;56.30
21425;DHT22;10873;51.132;16.848;2023-08-08T06:45:25;27.70;56.30
21425;DHT22;10873;51.132;16.848;2023-08-08T06:47:51;27.70;56.30
21425;DHT22;10873;51.132;16.848;2023-08-08T06:50:18;27.70;56.30
21425;DHT22;10873;51.132;16.848;2023-08-08T06:52:44;27.70;56.40
21425;DHT22;10873;51.132;16.848;2023-08-08T06:55:11;27.70;56.30
21425;DHT22;10873;51.132;16.848;2023-08-08T06:57:37;27.70;56.30
21425;DHT22;10873;51.132;16.848;2023-08-08T07:00:04;27.70;56.00
21425;DHT22;10873;51.132;16.848;2023-08-08T07:02:31;27.70;56.00
21425;DHT22;10873;51.132;16.848;2023-08-08T07:05:00;27.70;56.00
21425;DHT22;10873;51.132;16.848;2023-08-08T07:07:27;27.70;56.10
21425;DHT22;10873;51.132;16.848;2023-08-08T07:09:59;27.70;56.10
21425;DHT22;10873;51.132;16.848;2023-08-08T07:12:25;27.70;56.10
21425;DHT22;10873;51.132;16.848;2023-08-08T07:14:51;27.70;56.10
21425;DHT22;10873;51.132;16.848;2023-08-08T07:17:17;27.70;56.20
21425;DHT22;10873;51.132;16.848;2023-08-08T07:19:43;27.70;56.50
21425;DHT22;10873;51.132;16.848;2023-08-08T07:22:10;27.70;56.80
21425;DHT22;10873;51.132;16.848;2023-08-08T07:24:38;27.70;57.10
21425;DHT22;10873;51.132;16.848;2023-08-08T07:27:04;27.70;57.70
21425;DHT22;10873;51.132;16.848;2023-08-08T07:29:31;27.70;57.90
21425;DHT22;10873;51.132;16.848;2023-08-08T07:31:58;27.70;58.20
21425;DHT22;10873;51.132;16.848;2023-08-08T07:34:24;27.70;58.30
21425;DHT22;10873;51.132;16.848;2023-08-08T07:36:50;27.80;58.40
21425;DHT22;10873;51.132;16.848;2023-08-08T07:39:16;27.80;58.50
21425;DHT22;10873;51.132;16.848;2023-08-08T07:41:44;27.70;58.50
21425;DHT22;10873;51.132;16.848;2023-08-08T07:44:10;27.80;58.60
21425;DHT22;10873;51.132;16.848;2023-08-08T07:46:36;27.80;58.60
21425;DHT22;10873;51.132;16.848;2023-08-08T07:49:02;27.80;58.60
21425;DHT22;10873;51.132;16.848;2023-08-08T07:51:29;27.80;58.60
21425;DHT22;10873;51.132;16.848;2023-08-08T07:53:55;27.80;58.70
21425;DHT22;10873;51.132;16.848;2023-08-08T07:56:21;27.80;58.70
21425;DHT22;10873;51.132;16.848;2023-08-08T07:58:49;27.80;58.50
21425;DHT22;10873;51.132;16.848;2023-08-08T08:01:15;27.80;58.50
21425;DHT22;10873;51.132;16.848;2023-08-08T08:03:41;27.90;58.50
21425;DHT22;10873;51.132;16.848;2023-08-08T08:06:07;27.80;58.40
21425;DHT22;10873;51.132;16.848;2023-08-08T08:08:33;27.80;58.20
21425;DHT22;10873;51.132;16.848;2023-08-08T08:11:00;27.80;58.00
21425;DHT22;10873;51.132;16.848;2023-08-08T08:13:26;27.80;57.70
21425;DHT22;10873;51.132;16.848;2023-08-08T08:15:54;27.80;57.10
21425;DHT22;10873;51.132;16.848;2023-08-08T08:18:20;27.80;56.80
21425;DHT22;10873;51.132;16.848;2023-08-08T08:20:46;27.80;56.70
21425;DHT22;10873;51.132;16.848;2023-08-08T08:23:13;27.80;56.70
21425;DHT22;10873;51.132;16.848;2023-08-08T08:25:39;27.80;56.40
21425;DHT22;10873;51.132;16.848;2023-08-08T08:28:05;27.80;56.30
21425;DHT22;10873;51.132;16.848;2023-08-08T08:30:31;27.80;56.20
21425;DHT22;10873;51.132;16.848;2023-08-08T08:32:59;27.80;56.20
21425;DHT22;10873;51.132;16.848;2023-08-08T08:35:26;27.80;56.10
21425;DHT22;10873;51.132;16.848;2023-08-08T08:37:52;27.80;55.90
21425;DHT22;10873;51.132;16.848;2023-08-08T08:40:18;27.80;55.70
21425;DHT22;10873;51.132;16.848;2023-08-08T08:42:45;27.70;55.50
21425;DHT22;10873;51.132;16.848;2023-08-08T08:45:14;27.70;55.30
21425;DHT22;10873;51.132;16.848;2023-08-08T08:47:45;27.70;55.20
21425;DHT22;10873;51.132;16.848;2023-08-08T08:50:13;27.80;55.20
21425;DHT22;10873;51.132;16.848;2023-08-08T08:52:42;27.70;55.00
21425;DHT22;10873;51.132;16.848;2023-08-08T08:55:08;27.70;55.10
21425;DHT22;10873;51.132;16.848;2023-08-08T08:57:35;27.80;55.20
21425;DHT22;10873;51.132;16.848;2023-08-08T09:00:01;27.70;55.20
21425;DHT22;10873;51.132;16.848;2023-08-08T09:02:28;27.70;55.10
21425;DHT22;10873;51.132;16.848;2023-08-08T09:04:54;27.70;55.00
21425;DHT22;10873;51.132;16.848;2023-08-08T09:07:23;27.70;54.70
21425;DHT22;10873;51.132;16.848;2023-08-08T09:09:52;27.70;54.30
21425;DHT22;10873;51.132;16.848;2023-08-08T09:12:19;27.80;54.00
21425;DHT22;10873;51.132;16.848;2023-08-08T09:14:45;27.80;53.70
21425;DHT22;10873;51.132;16.848;2023-08-08T09:17:11;27.80;53.40
21425;DHT22;10873;51.132;16.848;2023-08-08T09:19:42;27.80;53.20
21425;DHT22;10873;51.132;16.848;2023-08-08T09:22:09;27.70;52.80
21425;DHT22;10873;51.132;16.848;2023-08-08T09:24:39;27.70;52.60
21425;DHT22;10873;51.132;16.848;2023-08-08T09:27:08;27.70;52.50
21425;DHT22;10873;51.132;16.848;2023-08-08T09:29:35;27.70;52.30
21425;DHT22;10873;51.132;16.848;2023-08-08T09:32:02;27.80;52.30
21425;DHT22;10873;51.132;16.848;2023-08-08T09:34:31;27.70;52.20
21425;DHT22;10873;51.132;16.848;2023-08-08T09:36:59;27.80;52.30
21425;DHT22;10873;51.132;16.848;2023-08-08T09:39:26;27.70;52.20
21425;DHT22;10873;51.132;16.848;2023-08-08T09:41:55;27.70;52.30
21425;DHT22;10873;51.132;16.848;2023-08-08T09:44:23;27.70;52.50
21425;DHT22;10873;51.132;16.848;2023-08-08T09:46:50;27.70;53.10
21425;DHT22;10873;51.132;16.848;2023-08-08T09:49:16;27.70;52.60
21425;DHT22;10873;51.132;16.848;2023-08-08T09:51:43;27.70;53.50
21425;DHT22;10873;51.132;16.848;2023-08-08T09:54:09;27.70;52.90
21425;DHT22;10873;51.132;16.848;2023-08-08T09:56:36;27.70;53.00
21425;DHT22;10873;51.132;16.848;2023-08-08T09:59:05;27.80;53.20
21425;DHT22;10873;51.132;16.848;2023-08-08T10:01:31;27.80;53.30
21425;DHT22;10873;51.132;16.848;2023-08-08T10:03:58;27.80;53.40
21425;DHT22;10873;51.132;16.848;2023-08-08T10:06:26;27.80;53.50
21425;DHT22;10873;51.132;16.848;2023-08-08T10:08:52;27.80;53.70
21425;DHT22;10873;51.132;16.848;2023-08-08T10:11:19;27.80;53.70
21425;DHT22;10873;51.132;16.848;2023-08-08T10:13:48;27.80;53.80
21425;DHT22;10873;51.132;16.848;2023-08-08T10:16:17;27.80;53.90
21425;DHT22;10873;51.132;16.848;2023-08-08T10:18:44;27.80;54.00
21425;DHT22;10873;51.132;16.848;2023-08-08T10:21:11;27.80;54.10
21425;DHT22;10873;51.132;16.848;2023-08-08T10:23:39;27.80;54.20
21425;DHT22;10873;51.132;16.848;2023-08-08T10:26:16;27.80;54.20
21425;DHT22;10873;51.132;16.848;2023-08-08T10:28:52;27.80;54.30
21425;DHT22;10873;51.132;16.848;2023-08-08T10:31:21;27.80;54.30
21425;DHT22;10873;51.132;16.848;2023-08-08T10:33:47;27.80;54.40
21425;DHT22;10873;51.132;16.848;2023-08-08T10:36:13;27.80;54.50
21425;DHT22;10873;51.132;16.848;2023-08-08T10:38:41;27.80;54.50
21425;DHT22;10873;51.132;16.848;2023-08-08T10:41:10;27.80;54.60
21425;DHT22;10873;51.132;16.848;2023-08-08T10:43:37;27.90;54.80
21425;DHT22;10873;51.132;16.848;2023-08-08T10:46:04;27.80;54.80
21425;DHT22;10873;51.132;16.848;2023-08-08T10:48:31;27.80;54.80
21425;DHT22;10873;51.132;16.848;2023-08-08T10:50:58;27.90;54.90
21425;DHT22;10873;51.132;16.848;2023-08-08T10:53:26;27.90;55.00
21425;DHT22;10873;51.132;16.848;2023-08-08T10:56:00;27.90;55.00
21425;DHT22;10873;51.132;16.848;2023-08-08T10:58:37;27.90;55.10
21425;DHT22;10873;51.132;16.848;2023-08-08T11:01:04;27.80;55.10
21425;DHT22;10873;51.132;16.848;2023-08-08T11:03:37;27.90;55.20
21425;DHT22;10873;51.132;16.848;2023-08-08T11:06:06;27.90;55.30
21425;DHT22;10873;51.132;16.848;2023-08-08T11:08:33;27.90;55.30
21425;DHT22;10873;51.132;16.848;2023-08-08T11:11:01;27.90;55.40
21425;DHT22;10873;51.132;16.848;2023-08-08T11:13:27;27.90;55.50
21425;DHT22;10873;51.132;16.848;2023-08-08T11:15:53;27.90;55.50
21425;DHT22;10873;51.132;16.848;2023-08-08T11:18:19;27.90;55.70
21425;DHT22;10873;51.132;16.848;2023-08-08T11:20:48;27.90;55.90
21425;DHT22;10873;51.132;16.848;2023-08-08T11:23:14;27.90;56.00
21425;DHT22;10873;51.132;16.848;2023-08-08T11:25:42;27.90;56.10
21425;DHT22;10873;51.132;16.848;2023-08-08T11:28:09;27.90;56.30
21425;DHT22;10873;51.132;16.848;2023-08-08T11:30:37;27.90;56.50
21425;DHT22;10873;51.132;16.848;2023-08-08T11:33:04;27.90;56.60
21425;DHT22;10873;51.132;16.848;2023-08-08T11:35:31;27.90;56.30
21425;DHT22;10873;51.132;16.848;2023-08-08T11:37:59;27.90;56.80
21425;DHT22;10873;51.132;16.848;2023-08-08T11:40:26;27.90;56.90
21425;DHT22;10873;51.132;16.848;2023-08-08T11:42:54;28.00;57.00
21425;DHT22;10873;51.132;16.848;2023-08-08T11:45:20;27.90;57.00
21425;DHT22;10873;51.132;16.848;2023-08-08T11:47:48;27.90;57.00
21425;DHT22;10873;51.132;16.848;2023-08-08T11:50:16;27.90;57.10
21425;DHT22;10873;51.132;16.848;2023-08-08T11:52:46;27.90;57.10
21425;DHT22;10873;51.132;16.848;2023-08-08T11:55:13;27.90;57.10
21425;DHT22;10873;51.132;16.848;2023-08-08T11:57:40;27.90;57.10
21425;DHT22;10873;51.132;16.848;2023-08-08T12:00:08;27.90;57.10
21425;DHT22;10873;51.132;16.848;2023-08-08T12:02:35;28.00;57.20
21425;DHT22;10873;51.132;16.848;2023-08-08T12:05:04;27.90;57.10
21425;DHT22;10873;51.132;16.848;2023-08-08T12:07:32;27.90;57.10
21425;DHT22;10873;51.132;16.848;2023-08-08T12:09:59;27.90;57.00
21425;DHT22;10873;51.132;16.848;2023-08-08T12:12:27;28.00;56.70
21425;DHT22;10873;51.132;16.848;2023-08-08T12:14:54;27.90;56.20
21425;DHT22;10873;51.132;16.848;2023-08-08T12:17:21;28.00;55.90
21425;DHT22;10873;51.132;16.848;2023-08-08T12:19:48;28.00;55.60
21425;DHT22;10873;51.132;16.848;2023-08-08T12:22:14;28.00;55.40
21425;DHT22;10873;51.132;16.848;2023-08-08T12:24:40;28.00;55.20
21425;DHT22;10873;51.132;16.848;2023-08-08T12:27:06;28.00;54.90
21425;DHT22;10873;51.132;16.848;2023-08-08T12:29:34;28.00;54.70
21425;DHT22;10873;51.132;16.848;2023-08-08T12:32:00;28.00;54.20
21425;DHT22;10873;51.132;16.848;2023-08-08T12:34:28;28.00;53.90
21425;DHT22;10873;51.132;16.848;2023-08-08T12:36:54;28.00;53.60
21425;DHT22;10873;51.132;16.848;2023-08-08T12:39:20;28.00;53.30
21425;DHT22;10873;51.132;16.848;2023-08-08T12:41:48;28.00;53.10
21425;DHT22;10873;51.132;16.848;2023-08-08T12:44:14;28.00;52.80
21425;DHT22;10873;51.132;16.848;2023-08-08T12:46:41;28.00;52.70
21425;DHT22;10873;51.132;16.848;2023-08-08T12:49:07;28.00;52.50
21425;DHT22;10873;51.132;16.848;2023-08-08T12:51:34;28.00;52.20
21425;DHT22;10873;51.132;16.848;2023-08-08T12:54:00;28.00;52.20
21425;DHT22;10873;51.132;16.848;2023-08-08T12:56:26;28.00;52.10
21425;DHT22;10873;51.132;16.848;2023-08-08T12:58:52;28.00;52.00
21425;DHT22;10873;51.132;16.848;2023-08-08T13:01:18;28.00;52.10
21425;DHT22;10873;51.132;16.848;2023-08-08T13:03:45;28.00;52.20
21425;DHT22;10873;51.132;16.848;2023-08-08T13:06:11;28.10;52.40
21425;DHT22;10873;51.132;16.848;2023-08-08T13:08:39;28.00;52.30
21425;DHT22;10873;51.132;16.848;2023-08-08T13:11:05;28.00;52.40
21425;DHT22;10873;51.132;16.848;2023-08-08T13:13:31;28.00;52.50
21425;DHT22;10873;51.132;16.848;2023-08-08T13:15:57;28.10;52.60
21425;DHT22;10873;51.132;16.848;2023-08-08T13:18:23;28.10;52.70
21425;DHT22;10873;51.132;16.848;2023-08-08T13:20:51;28.10;52.80
21425;DHT22;10873;51.132;16.848;2023-08-08T13:23:17;28.10;53.00
21425;DHT22;10873;51.132;16.848;2023-08-08T13:25:43;28.10;53.70
21425;DHT22;10873;51.132;16.848;2023-08-08T13:28:09;28.10;53.20
21425;DHT22;10873;51.132;16.848;2023-08-08T13:30:35;28.10;53.90
21425;DHT22;10873;51.132;16.848;2023-08-08T13:33:01;28.10;53.40
21425;DHT22;10873;51.132;16.848;2023-08-08T13:35:27;28.10;53.50
21425;DHT22;10873;51.132;16.848;2023-08-08T13:37:55;28.10;53.60
21425;DHT22;10873;51.132;16.848;2023-08-08T13:40:22;28.10;53.70
21425;DHT22;10873;51.132;16.848;2023-08-08T13:42:49;28.10;53.80
21425;DHT22;10873;51.132;16.848;2023-08-08T13:45:16;28.10;53.90
21425;DHT22;10873;51.132;16.848;2023-08-08T13:47:45;28.10;53.90
21425;DHT22;10873;51.132;16.848;2023-08-08T13:50:13;28.10;54.00
21425;DHT22;10873;51.132;16.848;2023-08-08T13:52:41;28.10;54.20
21425;DHT22;10873;51.132;16.848;2023-08-08T13:55:10;28.00;54.20
21425;DHT22;10873;51.132;16.848;2023-08-08T13:57:37;28.00;54.20
21425;DHT22;10873;51.132;16.848;2023-08-08T14:00:04;28.00;54.20
21425;DHT22;10873;51.132;16.848;2023-08-08T14:02:32;28.00;54.20
21425;DHT22;10873;51.132;16.848;2023-08-08T14:04:59;28.00;54.30
21425;DHT22;10873;51.132;16.848;2023-08-08T14:07:25;28.00;54.40
21425;DHT22;10873;51.132;16.848;2023-08-08T14:09:51;28.00;54.50
21425;DHT22;10873;51.132;16.848;2023-08-08T14:12:19;28.00;54.60
21425;DHT22;10873;51.132;16.848;2023-08-08T14:14:45;28.00;54.70
21425;DHT22;10873;51.132;16.848;2023-08-08T14:17:11;28.00;54.80
21425;DHT22;10873;51.132;16.848;2023-08-08T14:19:37;28.00;55.10
21425;DHT22;10873;51.132;16.848;2023-08-08T14:22:04;27.90;55.10
21425;DHT22;10873;51.132;16.848;2023-08-08T14:24:30;27.90;55.30
21425;DHT22;10873;51.132;16.848;2023-08-08T14:26:56;27.80;55.50
21425;DHT22;10873;51.132;16.848;2023-08-08T14:29:24;27.80;55.70
21425;DHT22;10873;51.132;16.848;2023-08-08T14:31:50;27.80;56.00
21425;DHT22;10873;51.132;16.848;2023-08-08T14:34:16;27.80;55.90
21425;DHT22;10873;51.132;16.848;2023-08-08T14:36:42;27.80;55.20
21425;DHT22;10873;51.132;16.848;2023-08-08T14:39:08;27.60;54.80
21425;DHT22;10873;51.132;16.848;2023-08-08T14:41:34;27.50;54.60
21425;DHT22;10873;51.132;16.848;2023-08-08T14:44:00;27.40;54.00
21425;DHT22;10873;51.132;16.848;2023-08-08T14:46:28;27.40;53.70
21425;DHT22;10873;51.132;16.848;2023-08-08T14:48:55;27.30;53.50
21425;DHT22;10873;51.132;16.848;2023-08-08T14:51:21;27.20;53.20
21425;DHT22;10873;51.132;16.848;2023-08-08T14:53:47;27.10;53.20
21425;DHT22;10873;51.132;16.848;2023-08-08T14:56:13;27.00;53.00
21425;DHT22;10873;51.132;16.848;2023-08-08T14:58:39;26.90;53.20
21425;DHT22;10873;51.132;16.848;2023-08-08T15:01:05;26.90;53.10
21425;DHT22;10873;51.132;16.848;2023-08-08T15:03:32;26.80;53.30
21425;DHT22;10873;51.132;16.848;2023-08-08T15:05:58;26.80;53.40
21425;DHT22;10873;51.132;16.848;2023-08-08T15:08:24;26.80;53.60
21425;DHT22;10873;51.132;16.848;2023-08-08T15:10:51;26.70;53.60
21425;DHT22;10873;51.132;16.848;2023-08-08T15:13:17;26.70;53.70